createdAt,value
2022-10-02T00:24:04.744Z,1.40
2022-10-02T00:27:35.009Z,1.30
2022-10-02T00:30:11.646Z,1.10
2022-10-02T00:32:58.965Z,1.70
2022-10-02T00:35:55.531Z,1.40
2022-10-02T00:38:35.028Z,1.20
2022-10-02T00:41:40.101Z,1.60
2022-10-02T00:44:41.591Z,1.23
2022-10-02T00:47:36.346Z,1.43
2022-10-02T00:50:16.989Z,1.43
2022-10-02T00:52:59.095Z,1.90
2022-10-02T00:55:55.610Z,1.10
2022-10-02T00:58:25.914Z,1.40
2022-10-02T01:01:06.076Z,1.20
2022-10-02T01:03:42.421Z,1.30
2022-10-02T01:06:10.670Z,1.10
2022-10-02T01:08:40.926Z,1.40
2022-10-02T01:11:08.685Z,1.33
2022-10-02T01:13:54.788Z,1.13
2022-10-02T01:16:30.630Z,1.30
2022-10-02T01:19:01.417Z,1.60
2022-10-02T01:21:43.251Z,1.20
2022-10-02T01:24:27.808Z,2.37
2022-10-02T01:27:12.353Z,1.40
2022-10-02T01:34:09.094Z,1.70
2022-10-02T01:37:04.557Z,1.60
2022-10-02T01:39:38.260Z,1.40
2022-10-02T01:42:12.579Z,1.40
2022-10-02T01:44:49.051Z,1.57
2022-10-02T01:47:26.027Z,1.47
2022-10-02T01:50:24.456Z,1.30
2022-10-02T01:52:58.166Z,1.63
2022-10-02T01:55:53.502Z,1.50
2022-10-02T01:58:42.900Z,1.27
2022-10-02T02:01:34.298Z,1.20
2022-10-02T02:04:23.882Z,1.40
2022-10-02T02:07:14.275Z,1.47
2022-10-02T02:09:58.285Z,1.40
2022-10-02T02:12:56.747Z,1.10
2022-10-02T02:15:36.966Z,1.23
2022-10-02T02:18:21.318Z,1.40
2022-10-02T02:21:25.902Z,1.20
2022-10-02T02:24:07.272Z,1.30
2022-10-02T02:26:36.309Z,1.40
2022-10-02T02:29:17.491Z,1.40
2022-10-02T02:31:51.331Z,1.70
2022-10-02T02:34:28.909Z,1.23
2022-10-02T02:37:04.353Z,1.23
2022-10-02T02:42:49.615Z,1.23
2022-10-02T02:45:55.107Z,1.33
2022-10-02T02:48:29.957Z,1.23
2022-10-02T02:51:16.783Z,1.50
2022-10-02T02:53:54.231Z,1.20
2022-10-02T02:56:22.006Z,1.10
2022-10-02T02:59:12.116Z,1.40
2022-10-02T03:01:48.526Z,1.47
2022-10-02T03:04:15.796Z,1.50
2022-10-02T03:06:49.514Z,1.80
2022-10-02T03:09:21.788Z,1.30
2022-10-02T03:12:09.408Z,1.37
2022-10-02T03:15:10.937Z,1.40
2022-10-02T03:18:15.289Z,1.20
2022-10-02T03:21:14.077Z,1.50
2022-10-02T03:24:01.437Z,1.13
2022-10-02T03:26:47.070Z,1.50
2022-10-02T03:29:37.511Z,1.10
2022-10-02T03:32:07.801Z,1.40
2022-10-02T03:34:36.337Z,1.80
2022-10-02T03:37:08.056Z,1.60
2022-10-02T03:39:55.611Z,1.77
2022-10-02T03:42:27.079Z,1.60
2022-10-02T03:44:54.266Z,1.73
2022-10-02T03:47:21.149Z,1.10
2022-10-02T03:49:55.228Z,2.27
2022-10-02T03:52:53.004Z,1.23
2022-10-02T03:55:34.082Z,1.20
2022-10-02T03:58:09.858Z,1.73
2022-10-02T04:00:39.793Z,1.40
2022-10-02T04:03:24.653Z,1.27
2022-10-02T04:10:16.011Z,1.20
2022-10-02T04:16:16.443Z,1.17
2022-10-02T04:19:16.433Z,1.80
2022-10-02T04:22:22.754Z,1.30
2022-10-02T04:24:57.788Z,1.60
2022-10-02T04:32:17.077Z,1.50
2022-10-02T04:35:09.332Z,1.20
2022-10-02T04:37:45.802Z,1.20
2022-10-02T04:41:13.733Z,1.40
2022-10-02T04:47:45.262Z,1.47
2022-10-02T04:58:59.472Z,1.43
2022-10-02T05:25:22.969Z,1.40
2022-10-02T09:05:26.017Z,1.97
2022-10-02T09:08:38.442Z,2.33
2022-10-02T09:11:37.268Z,2.27
2022-10-02T09:14:10.584Z,1.80
2022-10-02T09:25:07.026Z,1.87
2022-10-02T09:28:05.654Z,1.90
2022-10-02T11:49:22.321Z,0.90
2022-10-02T12:31:43.760Z,0.80
2022-10-02T12:46:28.502Z,0.70
2022-10-02T12:48:05.943Z,0.73
2022-10-02T12:49:20.692Z,0.80
2022-10-02T13:00:08.628Z,0.80
2022-10-02T13:07:18.895Z,0.90
2022-10-02T13:10:27.414Z,0.80
2022-10-02T13:22:49.214Z,1.50
2022-10-02T13:55:38.800Z,1.90
2022-10-02T14:07:59.595Z,1.87
2022-10-02T14:10:46.795Z,1.60
2022-10-02T14:21:58.483Z,1.40
2022-10-02T14:25:18.026Z,1.07
2022-10-02T14:28:14.822Z,1.10
2022-10-02T14:31:10.123Z,1.10
2022-10-02T14:41:50.416Z,1.40
2022-10-02T14:52:13.104Z,1.50
2022-10-02T14:55:16.453Z,1.50
2022-10-02T14:58:27.201Z,1.20
2022-10-02T15:15:33.034Z,1.13
2022-10-02T15:26:35.874Z,1.30
2022-10-02T15:29:47.780Z,1.20
2022-10-02T15:32:35.466Z,1.50
2022-10-02T15:43:17.961Z,1.07
2022-10-02T15:46:00.455Z,1.20
2022-10-02T15:48:58.102Z,1.03
2022-10-02T16:06:56.034Z,1.20
2022-10-02T16:10:03.291Z,1.17
2022-10-02T16:13:11.853Z,1.00
2022-10-02T16:31:08.413Z,1.20
2022-10-02T16:34:23.993Z,1.43
2022-10-02T16:37:57.166Z,1.43
2022-10-02T16:40:49.289Z,1.63
2022-10-02T16:44:12.576Z,1.63
2022-10-02T16:46:54.472Z,1.97
2022-10-02T16:49:26.435Z,1.77
2022-10-02T16:52:02.659Z,1.50
2022-10-02T16:55:33.187Z,1.40
2022-10-02T16:59:01.620Z,1.70
2022-10-02T17:02:20.984Z,2.03
2022-10-02T17:05:11.963Z,2.27
2022-10-02T17:12:27.911Z,2.00
2022-10-02T17:15:19.980Z,2.07
2022-10-02T17:18:19.647Z,2.20
2022-10-02T17:21:33.005Z,2.37
2022-10-02T17:39:12.885Z,2.40
2022-10-02T17:54:04.983Z,2.50
2022-10-02T18:07:34.491Z,3.27
2022-10-02T18:11:36.471Z,3.10
2022-10-02T18:22:16.985Z,3.67
2022-10-02T18:25:22.132Z,3.30
2022-10-02T18:28:19.521Z,3.50
2022-10-02T18:35:07.254Z,2.87
2022-10-02T18:38:18.246Z,2.43
2022-10-02T18:45:06.606Z,2.33
2022-10-02T19:09:18.967Z,2.53
2022-10-02T19:18:37.462Z,2.57
2022-10-02T20:03:55.823Z,2.30
2022-10-02T20:31:22.196Z,1.70
2022-10-02T20:33:59.923Z,1.77
2022-10-02T20:36:53.351Z,1.90
2022-10-02T20:43:45.913Z,2.10
2022-10-02T20:47:12.049Z,2.47
2022-10-02T20:50:40.246Z,2.37
2022-10-02T20:53:56.332Z,2.90
2022-10-02T21:05:11.752Z,2.40
2022-10-02T21:08:38.898Z,1.90
2022-10-02T21:11:32.061Z,2.47
2022-10-02T21:28:45.798Z,2.50
2022-10-02T21:31:36.512Z,2.97
2022-10-02T21:34:37.469Z,3.00
2022-10-02T21:37:28.093Z,3.13
2022-10-02T21:40:34.912Z,3.10
2022-10-02T21:43:51.693Z,3.10
2022-10-02T21:46:45.098Z,2.90
2022-10-02T21:49:27.240Z,3.37
2022-10-02T21:52:02.940Z,3.03
2022-10-02T21:55:07.736Z,3.27
2022-10-02T21:57:50.454Z,3.27
2022-10-02T22:00:56.752Z,3.20
2022-10-02T22:03:48.525Z,2.43
2022-10-02T22:06:50.150Z,3.03
2022-10-02T22:09:32.357Z,2.40
2022-10-02T22:12:05.565Z,2.50
2022-10-02T22:14:47.525Z,2.30
2022-10-02T22:21:43.722Z,2.40
2022-10-02T22:28:25.149Z,2.00
2022-10-02T22:30:58.368Z,2.50
2022-10-02T22:34:06.060Z,1.93
2022-10-02T22:37:21.692Z,1.97
2022-10-02T22:40:14.595Z,2.00
2022-10-02T22:42:49.148Z,2.10
2022-10-02T22:45:45.789Z,2.30
2022-10-02T22:49:57.743Z,2.23
2022-10-02T23:02:52.761Z,2.47
2022-10-02T23:06:03.061Z,2.67
2022-10-02T23:17:26.684Z,2.83
2022-10-02T23:21:02.554Z,3.20
2022-10-02T23:24:39.496Z,3.37
2022-10-02T23:30:55.349Z,2.90
2022-10-02T23:33:29.968Z,3.30
2022-10-02T23:36:03.294Z,3.40
2022-10-02T23:39:40.957Z,3.20
2022-10-02T23:42:39.677Z,3.70
2022-10-02T23:45:45.204Z,3.23
2022-10-02T23:48:14.654Z,3.50
2022-10-02T23:51:06.949Z,3.87
2022-10-02T23:54:15.323Z,4.37
2022-10-02T23:57:00.971Z,3.60
